CheckWX is a tool to help pilots better visualize weather data.  It is not intended as a substitute for an official pre-flight weather briefing.

09:17:33 UTC

KRDK METAR
Red Oak Municipal Airport
Red Oak, Iowa, USA
Current

23 mins ago

KRDK 310855Z AUTO 04004KT 10SM OVC060 15/13 A3023 RMK AO2
Observed
May-31 @ 08:55 UTC
Wind
  • 040° at 4 KTS
Visibility
Flight Rules
VFR
Cloud Levels
  • Overcast at 6,000' AGL
Temperature
15°C / 59°F
Dewpoint
13°C / 55°F
Humidity
88%
Altimeter
30.23" Hg
Pressure
1023.72 hPa
Previous

43 mins ago

KRDK 310835Z AUTO 00000KT 10SM OVC060 15/13 A3023 RMK AO2
Observed
May-31 @ 08:35 UTC
Visibility
Flight Rules
VFR
Cloud Levels
  • Overcast at 6,000' AGL
Temperature
15°C / 59°F
Dewpoint
13°C / 55°F
Humidity
88%
Altimeter
30.23" Hg
Pressure
1023.72 hPa
Previous

1 hour ago

KRDK 310815Z AUTO 00000KT 10SM OVC060 15/13 A3023 RMK AO2
Observed
May-31 @ 08:15 UTC
Visibility
Flight Rules
VFR
Cloud Levels
  • Overcast at 6,000' AGL
Temperature
15°C / 59°F
Dewpoint
13°C / 55°F
Humidity
88%
Altimeter
30.23" Hg
Pressure
1023.72 hPa